createdAt,value
2017-05-16T00:00:02.216Z,13.62
2017-05-16T00:10:02.573Z,13.51
2017-05-16T00:20:02.142Z,13.38
2017-05-16T00:30:02.619Z,13.27
2017-05-16T00:40:02.902Z,13.24
2017-05-16T00:50:02.500Z,13.25
2017-05-16T01:00:02.928Z,13.24
2017-05-16T01:10:02.277Z,13.14
2017-05-16T01:20:02.624Z,13.01
2017-05-16T01:30:03.126Z,12.91
2017-05-16T01:40:02.598Z,12.86
2017-05-16T01:50:02.537Z,12.87
2017-05-16T02:00:02.995Z,12.94
2017-05-16T02:10:02.678Z,13.02
2017-05-16T02:20:02.728Z,13.08
2017-05-16T02:30:02.208Z,13.15
2017-05-16T02:40:02.684Z,13.19
2017-05-16T02:50:03.168Z,13.18
2017-05-16T03:00:02.653Z,13.19
2017-05-16T03:10:02.209Z,13.23
2017-05-16T03:20:02.285Z,13.27
2017-05-16T03:30:02.764Z,13.3
2017-05-16T03:40:02.185Z,13.34
2017-05-16T03:50:02.906Z,13.37
2017-05-16T04:00:02.382Z,13.43
2017-05-16T04:10:02.406Z,13.48
2017-05-16T04:20:02.641Z,13.49
2017-05-16T04:30:03.016Z,13.5
2017-05-16T04:40:02.623Z,13.55
2017-05-16T04:50:03.011Z,13.63
2017-05-16T05:00:02.203Z,13.71
2017-05-16T05:10:02.806Z,13.82
2017-05-16T05:20:02.388Z,13.94
2017-05-16T05:30:02.741Z,14.05
2017-05-16T05:40:02.221Z,14.1
2017-05-16T05:50:02.952Z,14.1
2017-05-16T06:00:02.941Z,14.15
2017-05-16T06:10:02.608Z,14.27
2017-05-16T06:20:03.080Z,14.37
2017-05-16T06:30:02.763Z,14.43
2017-05-16T06:40:02.187Z,14.53
2017-05-16T06:50:03.040Z,14.66
2017-05-16T07:00:03.030Z,14.86
2017-05-16T07:10:03.117Z,15.11
2017-05-16T07:20:02.367Z,15.33
2017-05-16T07:30:02.840Z,15.75
2017-05-16T07:40:02.207Z,16.2
2017-05-16T07:50:02.287Z,16.36
2017-05-16T08:00:02.305Z,16.57
2017-05-16T08:10:02.398Z,16.81
2017-05-16T08:20:02.709Z,16.95
2017-05-16T08:30:03.024Z,17.08
2017-05-16T08:40:03.072Z,17.38
2017-05-16T08:50:02.470Z,17.47
2017-05-16T09:00:02.470Z,17.58
2017-05-16T09:10:02.523Z,17.67
2017-05-16T09:20:02.917Z,17.68
2017-05-16T09:30:02.274Z,17.79
2017-05-16T09:40:02.667Z,18.1
2017-05-16T09:50:02.802Z,18.57
2017-05-16T10:00:02.828Z,19.07
2017-05-16T10:10:02.271Z,19.17
2017-05-16T10:20:02.891Z,18.84
2017-05-16T10:30:02.326Z,18.55
2017-05-16T10:40:02.783Z,18.4
2017-05-16T10:50:02.163Z,18.47
2017-05-16T11:00:02.543Z,18.61
2017-05-16T11:10:02.571Z,18.66
2017-05-16T11:20:02.976Z,18.49
2017-05-16T11:30:02.328Z,18.37
2017-05-16T11:40:02.410Z,18.65
2017-05-16T11:50:02.554Z,18.83
2017-05-16T12:00:02.522Z,18.97
2017-05-16T12:10:03.045Z,19.21
2017-05-16T12:20:02.573Z,19.27
2017-05-16T12:30:03.103Z,19.25
2017-05-16T12:40:02.529Z,19.37
2017-05-16T12:50:02.686Z,19.85
2017-05-16T13:00:03.067Z,20.2
2017-05-16T13:10:03.112Z,20.32
2017-05-16T13:20:02.663Z,20.46
2017-05-16T13:30:03.005Z,20.64
2017-05-16T13:40:03.072Z,20.85
2017-05-16T13:50:02.887Z,21.06
2017-05-16T14:00:02.904Z,21.3
2017-05-16T14:10:03.003Z,21.34
2017-05-16T14:20:02.208Z,21.25
2017-05-16T14:30:02.967Z,21.17
2017-05-16T14:40:03.227Z,20.98
2017-05-16T14:50:02.822Z,20.93
2017-05-16T15:00:02.817Z,21.04
2017-05-16T15:10:02.868Z,21.14
2017-05-16T15:20:02.441Z,21.22
2017-05-16T15:30:02.755Z,21.38
2017-05-16T15:40:02.765Z,21.45
2017-05-16T15:50:02.978Z,21.39
2017-05-16T16:00:03.131Z,21.29
2017-05-16T16:10:02.241Z,21.16
2017-05-16T16:20:02.127Z,21.06
2017-05-16T16:30:02.900Z,20.99
2017-05-16T16:40:02.310Z,20.86
2017-05-16T16:50:02.770Z,20.73
2017-05-16T17:00:03.042Z,20.61
2017-05-16T17:10:03.137Z,20.46
2017-05-16T17:20:02.509Z,20.29
2017-05-16T17:30:02.263Z,20.12
2017-05-16T17:40:02.341Z,19.96
2017-05-16T17:50:02.443Z,19.76
2017-05-16T18:00:02.461Z,19.61
2017-05-16T18:10:03.076Z,19.43
2017-05-16T18:20:02.833Z,19.25
2017-05-16T18:30:02.411Z,19.12
2017-05-16T18:40:02.877Z,19.01
2017-05-16T18:50:02.599Z,18.86
2017-05-16T19:00:03.167Z,18.74
2017-05-16T19:10:03.320Z,18.61
2017-05-16T19:20:02.489Z,18.42
2017-05-16T19:30:02.996Z,18.28
2017-05-16T19:40:02.483Z,18.14
2017-05-16T19:50:02.228Z,18.03
2017-05-16T20:00:02.685Z,17.94
2017-05-16T20:10:02.473Z,17.84
2017-05-16T20:20:02.138Z,17.78
2017-05-16T20:30:02.599Z,17.69
2017-05-16T20:40:03.114Z,17.59
2017-05-16T20:50:02.940Z,17.51
2017-05-16T21:00:02.393Z,17.47
2017-05-16T21:10:02.211Z,17.43
2017-05-16T21:20:02.733Z,17.4
2017-05-16T21:30:02.198Z,17.38
2017-05-16T21:40:02.651Z,17.35
2017-05-16T21:50:02.627Z,17.33
2017-05-16T22:00:02.197Z,17.29
2017-05-16T22:10:02.983Z,17.24
2017-05-16T22:20:02.682Z,17.21
2017-05-16T22:30:02.137Z,17.18
2017-05-16T22:40:02.826Z,17.13
2017-05-16T22:50:03.032Z,17.06
2017-05-16T23:00:02.446Z,17
2017-05-16T23:10:02.556Z,16.93
2017-05-16T23:20:02.338Z,16.84
2017-05-16T23:30:02.822Z,16.77
2017-05-16T23:40:02.389Z,16.73
2017-05-16T23:50:02.845Z,16.71
